ACA7042 KTPA-CYHU
Flight info
| Callsign | ACA7042 |
|---|---|
| Flight time | N/A |
| Altitude | 35000 |
| Route | BAYPO2 CAMJO Q99 BLAAN/N0451F370 Q99 POLYY DCT DADDS Q87 GEARS DCT BBOBO Q22 LLUND DCT CAM DCT LATTS/N0364F170 T705 DUNUP DCT |
| Aircraft | A320/M-SDE3FGHIRWY/LB1 |
Departure
| Time | 2026-04-30 13:54 |
|---|---|
| Airport | Tampa International Airport (KTPA) |
Arrival
| Time | N/A |
|---|---|
| Airport | Montréal / Saint-Hubert Metropolitan Airport (CYHU) |
| Time | Latitude | Longitude | Altitude | Speed | Heading |
|---|---|---|---|---|---|
| 2026-04-30 13:49 | 27.96816 | -82.52425 | 43 ft | 0 kts | 271° |
| 2026-04-30 13:49 | 27.96818 | -82.52440 | 43 ft | 6 kts | 282° |
| 2026-04-30 13:50 | 27.96839 | -82.52472 | 43 ft | 6 kts | 316° |
| 2026-04-30 13:50 | 27.96876 | -82.52602 | 43 ft | 13 kts | 271° |
| 2026-04-30 13:50 | 27.96849 | -82.52686 | 42 ft | 13 kts | 198° |
| 2026-04-30 13:51 | 27.96765 | -82.52693 | 42 ft | 7 kts | 191° |
| 2026-04-30 13:51 | 27.96739 | -82.52731 | 42 ft | 7 kts | 259° |
| 2026-04-30 13:51 | 27.96691 | -82.52767 | 41 ft | 12 kts | 186° |
| 2026-04-30 13:51 | 27.96636 | -82.52768 | 41 ft | 11 kts | 181° |
| 2026-04-30 13:52 | 27.96540 | -82.52773 | 41 ft | 9 kts | 180° |
| 2026-04-30 13:52 | 27.96500 | -82.52774 | 41 ft | 8 kts | 181° |
| 2026-04-30 13:52 | 27.96472 | -82.52776 | 41 ft | 2 kts | 193° |
| 2026-04-30 13:52 | 27.96460 | -82.52782 | 41 ft | 4 kts | 205° |
| 2026-04-30 13:53 | 27.96440 | -82.52822 | 39 ft | 8 kts | 264° |
| 2026-04-30 13:53 | 27.96447 | -82.52888 | 36 ft | 6 kts | 299° |
| 2026-04-30 13:53 | 27.96520 | -82.52897 | 37 ft | 29 kts | 1° |
| 2026-04-30 13:53 | 27.96985 | -82.52881 | 36 ft | 101 kts | 1° |
| 2026-04-30 13:54 | 27.97886 | -82.52851 | 39 ft | 155 kts | 1° |
| 2026-04-30 13:54 | 27.99001 | -82.52824 | 567 ft | 157 kts | 358° |
| 2026-04-30 13:54 | 28.00103 | -82.52857 | 1135 ft | 161 kts | 353° |
| 2026-04-30 13:54 | 28.01246 | -82.52938 | 1705 ft | 169 kts | 353° |
| 2026-04-30 13:55 | 28.02465 | -82.53035 | 2099 ft | 183 kts | 353° |
| 2026-04-30 13:55 | 28.03789 | -82.53139 | 2426 ft | 198 kts | 353° |
| 2026-04-30 13:55 | 28.05232 | -82.53254 | 2726 ft | 217 kts | 353° |
| 2026-04-30 13:55 | 28.06829 | -82.53382 | 2995 ft | 242 kts | 353° |
| 2026-04-30 13:56 | 28.08584 | -82.53510 | 3426 ft | 262 kts | 354° |
| 2026-04-30 13:56 | 28.10429 | -82.53664 | 4105 ft | 269 kts | 347° |
| 2026-04-30 13:56 | 28.12222 | -82.54308 | 4840 ft | 273 kts | 335° |
| 2026-04-30 13:56 | 28.14007 | -82.55075 | 5646 ft | 276 kts | 335° |
| 2026-04-30 13:57 | 28.15803 | -82.55851 | 6483 ft | 276 kts | 335° |
| 2026-04-30 13:57 | 28.17622 | -82.56639 | 7286 ft | 277 kts | 335° |
| 2026-04-30 13:57 | 28.19442 | -82.57371 | 8070 ft | 280 kts | 341° |
| 2026-04-30 13:57 | 28.21400 | -82.57654 | 8836 ft | 288 kts | 354° |
| 2026-04-30 13:58 | 28.23408 | -82.57702 | 9608 ft | 289 kts | 353° |
| 2026-04-30 13:58 | 28.27560 | -82.57826 | 10448 ft | 318 kts | 353° |
| 2026-04-30 13:58 | 28.29852 | -82.57905 | 10584 ft | 340 kts | 353° |
| 2026-04-30 13:59 | 28.32259 | -82.57981 | 11002 ft | 350 kts | 354° |
| 2026-04-30 13:59 | 28.34713 | -82.58048 | 11618 ft | 354 kts | 354° |
| 2026-04-30 13:59 | 28.37185 | -82.58112 | 12274 ft | 357 kts | 353° |
| 2026-04-30 13:59 | 28.39677 | -82.58172 | 12928 ft | 360 kts | 353° |
| 2026-04-30 14:00 | 28.42189 | -82.58230 | 13587 ft | 362 kts | 353° |
| 2026-04-30 14:00 | 28.47264 | -82.58354 | 14761 ft | 368 kts | 353° |
| 2026-04-30 14:00 | 28.49832 | -82.58420 | 15297 ft | 371 kts | 353° |
| 2026-04-30 14:01 | 28.52429 | -82.58488 | 15851 ft | 374 kts | 353° |
| 2026-04-30 14:01 | 28.55043 | -82.58553 | 16401 ft | 377 kts | 353° |
| 2026-04-30 14:01 | 28.57679 | -82.58617 | 16969 ft | 380 kts | 353° |
| 2026-04-30 14:01 | 28.60333 | -82.58681 | 17511 ft | 383 kts | 354° |
| 2026-04-30 14:02 | 28.63007 | -82.58745 | 18060 ft | 386 kts | 354° |
| 2026-04-30 14:02 | 28.65703 | -82.58812 | 18557 ft | 389 kts | 354° |
| 2026-04-30 14:02 | 28.68394 | -82.59028 | 19023 ft | 388 kts | 348° |
| 2026-04-30 14:02 | 28.71084 | -82.59402 | 19495 ft | 391 kts | 348° |
| 2026-04-30 14:03 | 28.73790 | -82.59780 | 19981 ft | 393 kts | 348° |
| 2026-04-30 14:03 | 28.76516 | -82.60163 | 20452 ft | 396 kts | 347° |
| 2026-04-30 14:03 | 28.79256 | -82.60550 | 20912 ft | 398 kts | 347° |
| 2026-04-30 14:03 | 28.82014 | -82.60940 | 21365 ft | 401 kts | 347° |
| 2026-04-30 14:04 | 28.84789 | -82.61329 | 21790 ft | 403 kts | 347° |
| 2026-04-30 14:04 | 28.87620 | -82.61724 | 22216 ft | 406 kts | 347° |
| 2026-04-30 14:04 | 28.90432 | -82.62117 | 22621 ft | 408 kts | 347° |
| 2026-04-30 14:04 | 28.93259 | -82.62513 | 23030 ft | 411 kts | 347° |
| 2026-04-30 14:05 | 28.96102 | -82.62910 | 23424 ft | 413 kts | 347° |
| 2026-04-30 14:05 | 28.98964 | -82.63309 | 23762 ft | 415 kts | 347° |
| 2026-04-30 14:05 | 29.01839 | -82.63710 | 24076 ft | 417 kts | 347° |
| 2026-04-30 14:05 | 29.04729 | -82.64113 | 24396 ft | 419 kts | 347° |
| 2026-04-30 14:06 | 29.07632 | -82.64517 | 24690 ft | 422 kts | 347° |
| 2026-04-30 14:06 | 29.13487 | -82.65336 | 25274 ft | 426 kts | 347° |
| 2026-04-30 14:07 | 29.19389 | -82.66166 | 25877 ft | 429 kts | 347° |
| 2026-04-30 14:07 | 29.22354 | -82.66584 | 26174 ft | 430 kts | 347° |
| 2026-04-30 14:07 | 29.25331 | -82.67003 | 26468 ft | 432 kts | 347° |
| 2026-04-30 14:08 | 29.31317 | -82.67848 | 27038 ft | 435 kts | 347° |
| 2026-04-30 14:08 | 29.34326 | -82.68272 | 27347 ft | 436 kts | 347° |
| 2026-04-30 14:08 | 29.40364 | -82.69121 | 27905 ft | 439 kts | 347° |
| 2026-04-30 14:09 | 29.43433 | -82.69319 | 28170 ft | 446 kts | 354° |
| 2026-04-30 14:09 | 29.46539 | -82.69300 | 28427 ft | 447 kts | 354° |
| 2026-04-30 14:09 | 29.52778 | -82.69253 | 28918 ft | 449 kts | 354° |
| 2026-04-30 14:10 | 29.55909 | -82.69230 | 29148 ft | 450 kts | 354° |
| 2026-04-30 14:10 | 29.59047 | -82.69212 | 29376 ft | 451 kts | 354° |
| 2026-04-30 14:10 | 29.62191 | -82.69194 | 29620 ft | 452 kts | 354° |
| 2026-04-30 14:10 | 29.65333 | -82.69174 | 29984 ft | 450 kts | 353° |
| 2026-04-30 14:11 | 29.68456 | -82.69153 | 30280 ft | 448 kts | 353° |
| 2026-04-30 14:11 | 29.71566 | -82.69131 | 30565 ft | 446 kts | 353° |
| 2026-04-30 14:11 | 29.74665 | -82.69108 | 30849 ft | 444 kts | 353° |
| 2026-04-30 14:11 | 29.77753 | -82.69087 | 31143 ft | 442 kts | 353° |
| 2026-04-30 14:12 | 29.80822 | -82.69069 | 31432 ft | 440 kts | 353° |
| 2026-04-30 14:12 | 29.83918 | -82.69051 | 31730 ft | 438 kts | 353° |
| 2026-04-30 14:12 | 29.86926 | -82.69031 | 32018 ft | 437 kts | 353° |
| 2026-04-30 14:12 | 29.88974 | -82.69016 | 32218 ft | 435 kts | 353° |
| 2026-04-30 14:13 | 29.93016 | -82.68991 | 32639 ft | 432 kts | 353° |
| 2026-04-30 14:13 | 29.96020 | -82.68976 | 32932 ft | 431 kts | 353° |
| 2026-04-30 14:13 | 29.99006 | -82.68959 | 33214 ft | 429 kts | 353° |
| 2026-04-30 14:13 | 30.01986 | -82.68940 | 33507 ft | 427 kts | 353° |
| 2026-04-30 14:14 | 30.04950 | -82.68920 | 33804 ft | 426 kts | 353° |
| 2026-04-30 14:14 | 30.07908 | -82.68903 | 34060 ft | 424 kts | 353° |
| 2026-04-30 14:14 | 30.10849 | -82.68886 | 34304 ft | 422 kts | 353° |
| 2026-04-30 14:14 | 30.13785 | -82.68868 | 34550 ft | 421 kts | 353° |
| 2026-04-30 14:15 | 30.16707 | -82.68850 | 34775 ft | 420 kts | 353° |
| 2026-04-30 14:15 | 30.19625 | -82.68833 | 34973 ft | 419 kts | 353° |
| 2026-04-30 14:15 | 30.22532 | -82.68816 | 34970 ft | 415 kts | 352° |
| 2026-04-30 14:16 | 30.28282 | -82.68772 | 34973 ft | 412 kts | 352° |
| 2026-04-30 14:16 | 30.34014 | -82.68738 | 34983 ft | 412 kts | 352° |
| 2026-04-30 14:17 | 30.39744 | -82.68703 | 34982 ft | 412 kts | 352° |
| 2026-04-30 14:17 | 30.45477 | -82.68668 | 34989 ft | 412 kts | 352° |
| 2026-04-30 14:18 | 30.51221 | -82.68526 | 34993 ft | 418 kts | 358° |
| 2026-04-30 14:18 | 30.59893 | -82.66734 | 35001 ft | 423 kts | 1° |
| 2026-04-30 14:19 | 30.68576 | -82.64876 | 34996 ft | 423 kts | 1° |
| 2026-04-30 14:20 | 30.74364 | -82.63638 | 34997 ft | 423 kts | 1° |
| 2026-04-30 14:20 | 30.83070 | -82.61777 | 35024 ft | 421 kts | 1° |
| 2026-04-30 14:21 | 30.88827 | -82.60550 | 35007 ft | 420 kts | 1° |
| 2026-04-30 14:22 | 30.97446 | -82.58702 | 34986 ft | 419 kts | 1° |
| 2026-04-30 14:22 | 31.06045 | -82.56847 | 34976 ft | 417 kts | 1° |
| 2026-04-30 14:23 | 31.11618 | -82.54530 | 34967 ft | 437 kts | 17° |
| 2026-04-30 14:23 | 31.17014 | -82.51249 | 34961 ft | 437 kts | 17° |
| 2026-04-30 14:24 | 31.25117 | -82.46324 | 34940 ft | 438 kts | 17° |
| 2026-04-30 14:25 | 31.35006 | -82.40300 | 34971 ft | 438 kts | 17° |
| 2026-04-30 14:26 | 31.43138 | -82.35346 | 34958 ft | 437 kts | 16° |
| 2026-04-30 14:27 | 31.51221 | -82.30409 | 34935 ft | 437 kts | 16° |
| 2026-04-30 14:27 | 31.56609 | -82.27109 | 34962 ft | 437 kts | 16° |
| 2026-04-30 14:28 | 31.64694 | -82.22145 | 34940 ft | 437 kts | 16° |
| 2026-04-30 14:28 | 31.70089 | -82.18838 | 34934 ft | 437 kts | 16° |
| 2026-04-30 14:29 | 31.80882 | -82.12207 | 34932 ft | 438 kts | 16° |
| 2026-04-30 14:31 | 31.94415 | -82.03848 | 34934 ft | 441 kts | 15° |
| 2026-04-30 14:31 | 32.02570 | -81.98801 | 34930 ft | 442 kts | 15° |
| 2026-04-30 14:32 | 32.10744 | -81.93739 | 34947 ft | 443 kts | 15° |
| 2026-04-30 14:33 | 32.16204 | -81.90354 | 34931 ft | 443 kts | 15° |
| 2026-04-30 14:33 | 32.24511 | -81.85483 | 34927 ft | 442 kts | 14° |
| 2026-04-30 14:34 | 32.30042 | -81.82287 | 34926 ft | 443 kts | 14° |
| 2026-04-30 14:34 | 32.35570 | -81.79042 | 34953 ft | 444 kts | 14° |
| 2026-04-30 14:35 | 32.43880 | -81.74143 | 34917 ft | 446 kts | 14° |
| 2026-04-30 14:36 | 32.49442 | -81.70862 | 34912 ft | 447 kts | 14° |
| 2026-04-30 14:36 | 32.55008 | -81.67567 | 34911 ft | 447 kts | 14° |
| 2026-04-30 14:37 | 32.60580 | -81.64267 | 34924 ft | 448 kts | 14° |
| 2026-04-30 14:37 | 32.66167 | -81.60967 | 34936 ft | 449 kts | 13° |
| 2026-04-30 14:38 | 32.71767 | -81.57644 | 34922 ft | 451 kts | 14° |
| 2026-04-30 14:38 | 32.77385 | -81.54296 | 34906 ft | 452 kts | 14° |
| 2026-04-30 14:39 | 32.83009 | -81.50942 | 34909 ft | 453 kts | 14° |
| 2026-04-30 14:39 | 32.88649 | -81.47589 | 34932 ft | 453 kts | 13° |
| 2026-04-30 14:40 | 32.97134 | -81.42532 | 34908 ft | 456 kts | 14° |
| 2026-04-30 14:40 | 33.02814 | -81.39132 | 34909 ft | 457 kts | 14° |
| 2026-04-30 14:41 | 33.08501 | -81.35727 | 34912 ft | 458 kts | 14° |
| 2026-04-30 14:41 | 33.14188 | -81.32306 | 34915 ft | 458 kts | 14° |
| 2026-04-30 14:42 | 33.19923 | -81.28861 | 34916 ft | 458 kts | 14° |
| 2026-04-30 14:42 | 33.25621 | -81.25434 | 34913 ft | 459 kts | 14° |
| 2026-04-30 14:43 | 33.31331 | -81.21995 | 34912 ft | 460 kts | 14° |
| 2026-04-30 14:43 | 33.37048 | -81.18552 | 34921 ft | 460 kts | 14° |
| 2026-04-30 14:44 | 33.42781 | -81.15094 | 34905 ft | 462 kts | 14° |
| 2026-04-30 14:44 | 33.48534 | -81.11611 | 34896 ft | 464 kts | 14° |
| 2026-04-30 14:45 | 33.54297 | -81.08111 | 34895 ft | 465 kts | 14° |
| 2026-04-30 14:45 | 33.60069 | -81.04600 | 34896 ft | 465 kts | 14° |
| 2026-04-30 14:46 | 33.65842 | -81.01083 | 34923 ft | 466 kts | 14° |
| 2026-04-30 14:46 | 33.71639 | -80.97564 | 34899 ft | 467 kts | 14° |
| 2026-04-30 14:47 | 33.77448 | -80.94033 | 34894 ft | 469 kts | 14° |
| 2026-04-30 14:47 | 33.83266 | -80.90478 | 34888 ft | 470 kts | 14° |
| 2026-04-30 14:48 | 33.86115 | -80.88444 | 34886 ft | 484 kts | 24° |
| 2026-04-30 14:48 | 33.88811 | -80.85955 | 34914 ft | 490 kts | 26° |
| 2026-04-30 14:48 | 33.94195 | -80.80899 | 34893 ft | 492 kts | 26° |
| 2026-04-30 14:49 | 33.99597 | -80.75827 | 34889 ft | 493 kts | 26° |
| 2026-04-30 14:49 | 34.05010 | -80.70733 | 34896 ft | 494 kts | 26° |
| 2026-04-30 14:50 | 34.13172 | -80.63046 | 34933 ft | 494 kts | 26° |
| 2026-04-30 14:51 | 34.21338 | -80.55343 | 34890 ft | 499 kts | 26° |
| 2026-04-30 14:52 | 34.29560 | -80.47593 | 34896 ft | 500 kts | 26° |
| 2026-04-30 14:52 | 34.37868 | -80.39978 | 34956 ft | 501 kts | 25° |
| 2026-04-30 14:53 | 34.46195 | -80.32326 | 34958 ft | 501 kts | 26° |
| 2026-04-30 14:54 | 34.57291 | -80.21997 | 34943 ft | 504 kts | 26° |
| 2026-04-30 14:55 | 34.65631 | -80.14230 | 34949 ft | 504 kts | 26° |
| 2026-04-30 14:56 | 34.76772 | -80.03865 | 34915 ft | 504 kts | 26° |
| 2026-04-30 14:56 | 34.82124 | -79.98257 | 34909 ft | 520 kts | 39° |
| 2026-04-30 14:57 | 34.84457 | -79.94846 | 34970 ft | 526 kts | 41° |
| 2026-04-30 14:58 | 34.92938 | -79.82136 | 34923 ft | 526 kts | 41° |
| 2026-04-30 14:58 | 34.99864 | -79.71733 | 34917 ft | 527 kts | 42° |
| 2026-04-30 15:00 | 35.11425 | -79.54331 | 34935 ft | 529 kts | 42° |
| 2026-04-30 15:01 | 35.20680 | -79.40340 | 34965 ft | 530 kts | 43° |
| 2026-04-30 15:01 | 35.27603 | -79.29812 | 34947 ft | 529 kts | 43° |
| 2026-04-30 15:02 | 35.32222 | -79.22786 | 34966 ft | 530 kts | 43° |
| 2026-04-30 15:03 | 35.43812 | -79.05109 | 34950 ft | 531 kts | 43° |
| 2026-04-30 15:04 | 35.55350 | -78.87383 | 34935 ft | 532 kts | 43° |
| 2026-04-30 15:05 | 35.62886 | -78.77721 | 34928 ft | 509 kts | 25° |
| 2026-04-30 15:06 | 35.68863 | -78.73346 | 34922 ft | 498 kts | 18° |
| 2026-04-30 15:07 | 35.80935 | -78.64956 | 34931 ft | 498 kts | 18° |
| 2026-04-30 15:08 | 35.93009 | -78.56521 | 34937 ft | 499 kts | 18° |
| 2026-04-30 15:09 | 36.08117 | -78.45915 | 34954 ft | 500 kts | 19° |
| 2026-04-30 15:10 | 36.20253 | -78.37371 | 34952 ft | 500 kts | 20° |
| 2026-04-30 15:11 | 36.38155 | -78.24376 | 34907 ft | 508 kts | 30° |
| 2026-04-30 15:13 | 36.51243 | -78.09150 | 34909 ft | 517 kts | 36° |
| 2026-04-30 15:14 | 36.69531 | -77.87567 | 34960 ft | 519 kts | 37° |
| 2026-04-30 15:17 | 36.93081 | -77.59561 | 34937 ft | 520 kts | 37° |
| 2026-04-30 15:19 | 37.15126 | -77.36901 | 34924 ft | 491 kts | 10° |